createdAt,value
2018-06-12T00:01:54.015Z,18.00
2018-06-12T00:04:22.846Z,18.00
2018-06-12T00:06:51.032Z,18.00
2018-06-12T00:09:19.232Z,18.10
2018-06-12T00:11:47.434Z,18.10
2018-06-12T00:14:15.683Z,18.00
2018-06-12T00:16:43.842Z,18.00
2018-06-12T00:19:12.050Z,18.10
2018-06-12T00:21:40.244Z,18.20
2018-06-12T00:24:08.426Z,18.20
2018-06-12T00:26:37.146Z,18.00
2018-06-12T00:29:05.986Z,18.00
2018-06-12T00:31:34.178Z,18.00
2018-06-12T00:34:02.382Z,18.00
2018-06-12T00:36:30.548Z,18.10
2018-06-12T00:38:58.713Z,18.10
2018-06-12T00:41:26.894Z,18.00
2018-06-12T00:43:55.059Z,18.10
2018-06-12T00:46:23.227Z,18.10
2018-06-12T00:48:51.470Z,18.20
2018-06-12T00:51:19.659Z,18.10
2018-06-12T00:53:47.887Z,18.10
2018-06-12T00:56:27.304Z,18.20
2018-06-12T00:58:55.462Z,18.20
2018-06-12T01:01:24.657Z,18.20
2018-06-12T01:03:53.167Z,18.20
2018-06-12T01:06:22.603Z,18.20
2018-06-12T01:08:50.813Z,18.20
2018-06-12T01:11:19.970Z,18.10
2018-06-12T01:13:48.130Z,18.10
2018-06-12T01:16:16.310Z,18.00
2018-06-12T01:18:44.466Z,18.00
2018-06-12T01:21:12.621Z,17.90
2018-06-12T01:23:40.841Z,17.90
2018-06-12T01:26:08.986Z,17.90
2018-06-12T01:28:37.135Z,17.90
2018-06-12T01:31:05.801Z,17.90
2018-06-12T01:33:33.946Z,17.80
2018-06-12T01:36:02.098Z,17.90
2018-06-12T01:38:30.258Z,18.00
2018-06-12T01:40:58.413Z,17.80
2018-06-12T01:43:26.599Z,17.90
2018-06-12T01:45:54.790Z,18.00
2018-06-12T01:48:22.934Z,18.00
2018-06-12T01:50:51.082Z,17.90
2018-06-12T01:53:19.238Z,17.80
2018-06-12T01:55:47.431Z,17.90
2018-06-12T01:58:15.590Z,18.00
2018-06-12T02:00:43.796Z,18.00
2018-06-12T02:03:12.049Z,18.00
2018-06-12T02:05:40.234Z,17.90
2018-06-12T02:08:09.714Z,17.90
2018-06-12T02:13:44.891Z,17.70
2018-06-12T02:16:13.109Z,17.70
2018-06-12T02:18:41.260Z,17.80
2018-06-12T02:21:09.451Z,17.80
2018-06-12T02:23:37.608Z,17.90
2018-06-12T02:26:05.751Z,17.90
2018-06-12T02:28:33.988Z,17.80
2018-06-12T02:31:02.135Z,17.80
2018-06-12T02:33:30.301Z,17.80
2018-06-12T02:35:58.480Z,17.80
2018-06-12T02:38:26.651Z,17.80
2018-06-12T02:40:54.805Z,17.80
2018-06-12T02:43:22.981Z,17.70
2018-06-12T02:45:51.145Z,17.80
2018-06-12T02:48:19.317Z,17.70
2018-06-12T02:50:48.055Z,17.70
2018-06-12T02:53:16.222Z,17.80
2018-06-12T02:55:44.411Z,17.80
2018-06-12T02:58:12.606Z,17.80
2018-06-12T03:00:40.754Z,17.80
2018-06-12T03:03:08.906Z,17.80
2018-06-12T03:05:37.115Z,17.70
2018-06-12T03:08:05.326Z,17.60
2018-06-12T03:10:34.355Z,17.60
2018-06-12T03:13:02.546Z,17.60
2018-06-12T03:15:30.854Z,17.70
2018-06-12T03:17:59.006Z,17.70
2018-06-12T03:20:46.842Z,17.70
2018-06-12T03:23:14.998Z,17.70
2018-06-12T03:25:43.153Z,17.50
2018-06-12T03:28:12.134Z,17.50
2018-06-12T03:30:40.296Z,17.40
2018-06-12T03:33:08.430Z,17.40
2018-06-12T03:35:36.605Z,17.30
2018-06-12T03:38:04.768Z,17.10
2018-06-12T03:40:32.926Z,17.10
2018-06-12T03:43:01.163Z,17.00
2018-06-12T03:45:29.477Z,16.90
2018-06-12T03:47:57.651Z,16.70
2018-06-12T03:50:25.855Z,16.60
2018-06-12T03:52:54.118Z,16.60
2018-06-12T03:55:22.306Z,16.20
2018-06-12T03:57:50.493Z,16.20
2018-06-12T04:00:18.662Z,16.40
2018-06-12T04:02:46.821Z,16.20
2018-06-12T04:05:15.019Z,16.10
2018-06-12T04:07:43.231Z,16.00
2018-06-12T04:10:11.362Z,16.10
2018-06-12T04:12:41.102Z,16.10
2018-06-12T04:15:09.261Z,16.00
2018-06-12T04:17:37.407Z,16.00
2018-06-12T04:20:05.583Z,16.10
2018-06-12T04:22:33.746Z,15.90
2018-06-12T04:25:01.914Z,15.90
2018-06-12T04:27:30.099Z,15.80
2018-06-12T04:29:58.262Z,15.90
2018-06-12T04:32:26.450Z,16.00
2018-06-12T04:34:54.961Z,15.90
2018-06-12T04:37:23.186Z,15.90
2018-06-12T04:39:51.334Z,16.10
2018-06-12T04:42:19.526Z,16.00
2018-06-12T04:44:47.930Z,16.10
2018-06-12T04:47:16.086Z,16.00
2018-06-12T04:49:44.422Z,16.20
2018-06-12T04:52:12.616Z,16.00
2018-06-12T04:54:40.821Z,16.00
2018-06-12T04:57:09.017Z,16.00
2018-06-12T04:59:37.223Z,16.00
2018-06-12T05:02:05.427Z,15.80
2018-06-12T05:04:33.602Z,16.00
2018-06-12T05:07:01.772Z,15.70
2018-06-12T05:09:29.949Z,15.90
2018-06-12T05:11:58.121Z,15.90
2018-06-12T05:14:26.428Z,15.70
2018-06-12T05:16:54.603Z,15.60
2018-06-12T05:19:23.510Z,15.50
2018-06-12T05:21:51.669Z,15.50
2018-06-12T05:24:19.826Z,15.60
2018-06-12T05:26:48.007Z,15.50
2018-06-12T05:29:16.179Z,15.50
2018-06-12T05:31:44.362Z,15.50
2018-06-12T05:34:12.646Z,15.70
2018-06-12T05:36:40.810Z,15.60
2018-06-12T05:39:10.102Z,15.60
2018-06-12T05:41:39.087Z,15.50
2018-06-12T05:44:07.250Z,15.60
2018-06-12T05:46:35.446Z,15.80
2018-06-12T05:49:03.659Z,16.00
2018-06-12T05:51:31.814Z,16.10
2018-06-12T05:54:00.008Z,16.20
2018-06-12T05:56:28.176Z,16.10
2018-06-12T05:58:56.338Z,16.10
2018-06-12T06:01:24.815Z,16.20
2018-06-12T06:03:52.973Z,16.10
2018-06-12T06:06:21.138Z,16.10
2018-06-12T06:08:49.339Z,16.30
2018-06-12T06:11:17.505Z,16.20
2018-06-12T06:13:45.671Z,16.20
2018-06-12T06:16:24.916Z,16.10
2018-06-12T06:18:53.077Z,16.10
2018-06-12T06:21:21.242Z,16.20
2018-06-12T06:26:23.191Z,15.90
2018-06-12T06:28:51.346Z,16.20
2018-06-12T06:31:19.522Z,16.10
2018-06-12T06:33:48.558Z,16.10
2018-06-12T06:36:16.719Z,16.10
2018-06-12T06:38:44.887Z,16.10
2018-06-12T06:41:13.054Z,16.20
2018-06-12T06:43:41.200Z,16.20
2018-06-12T06:46:09.354Z,16.20
2018-06-12T06:48:38.071Z,16.30
2018-06-12T06:51:06.319Z,16.00
2018-06-12T06:53:34.507Z,16.00
2018-06-12T06:56:02.651Z,15.90
2018-06-12T06:58:30.824Z,16.10
2018-06-12T07:00:58.988Z,16.10
2018-06-12T07:03:27.160Z,16.00
2018-06-12T07:05:55.306Z,16.10
2018-06-12T07:08:23.455Z,16.10
2018-06-12T07:10:52.153Z,16.10
2018-06-12T07:13:20.305Z,16.30
2018-06-12T07:15:48.471Z,16.20
2018-06-12T07:18:17.237Z,16.20
2018-06-12T07:21:22.583Z,16.10
2018-06-12T07:23:50.791Z,16.20
2018-06-12T07:26:19.018Z,16.20
2018-06-12T07:28:47.182Z,16.30
2018-06-12T07:31:15.374Z,16.10
2018-06-12T07:33:43.520Z,16.10
2018-06-12T07:36:11.827Z,16.00
2018-06-12T07:38:40.026Z,16.10
2018-06-12T07:41:08.210Z,16.00
2018-06-12T07:43:36.453Z,16.20
2018-06-12T07:46:04.814Z,16.10
2018-06-12T07:48:32.988Z,16.20
2018-06-12T07:51:01.160Z,16.10
2018-06-12T07:53:29.905Z,16.10
2018-06-12T07:55:58.053Z,16.00
2018-06-12T07:58:26.212Z,16.30
2018-06-12T08:00:54.400Z,16.30
2018-06-12T08:03:22.550Z,16.50
2018-06-12T08:05:50.723Z,16.60
2018-06-12T08:08:18.897Z,16.90
2018-06-12T08:10:47.073Z,16.90
2018-06-12T08:13:15.253Z,16.70
2018-06-12T08:15:43.746Z,16.80
2018-06-12T08:18:11.919Z,16.90
2018-06-12T08:20:40.214Z,17.10
2018-06-12T08:23:08.398Z,17.10
2018-06-12T08:25:36.570Z,17.20
2018-06-12T08:28:04.720Z,17.20
2018-06-12T08:30:32.997Z,17.20
2018-06-12T08:33:01.102Z,17.30
2018-06-12T08:35:29.366Z,17.20
2018-06-12T08:37:57.963Z,17.30
2018-06-12T08:40:26.131Z,17.50
2018-06-12T08:42:54.282Z,17.20
2018-06-12T08:45:22.477Z,17.30
2018-06-12T08:47:50.633Z,17.70
2018-06-12T08:50:18.795Z,17.50
2018-06-12T08:52:46.967Z,17.40
2018-06-12T08:55:15.113Z,17.90
2018-06-12T08:57:43.308Z,17.90
2018-06-12T09:00:11.554Z,17.60
2018-06-12T09:02:39.737Z,17.50
2018-06-12T09:05:07.924Z,17.30
2018-06-12T09:07:36.110Z,17.20
2018-06-12T09:10:04.315Z,17.50
2018-06-12T09:12:32.510Z,17.50
2018-06-12T09:15:00.686Z,17.30
2018-06-12T09:17:28.854Z,17.20
2018-06-12T09:19:57.002Z,17.30
2018-06-12T09:24:58.774Z,17.20
2018-06-12T09:27:26.930Z,17.10
2018-06-12T09:29:55.102Z,17.10
2018-06-12T09:32:23.270Z,17.30
2018-06-12T09:34:51.453Z,17.60
2018-06-12T09:37:19.730Z,17.30
2018-06-12T09:39:48.046Z,17.40
2018-06-12T09:42:16.206Z,17.70
2018-06-12T09:44:44.384Z,17.60
2018-06-12T09:47:13.103Z,17.50
2018-06-12T09:49:41.235Z,17.50
2018-06-12T09:52:09.387Z,17.20
2018-06-12T09:54:37.574Z,17.00
2018-06-12T09:57:05.830Z,17.00
2018-06-12T09:59:34.003Z,17.20
2018-06-12T10:02:02.235Z,17.40
2018-06-12T10:04:30.394Z,17.40
2018-06-12T10:06:58.575Z,17.40
2018-06-12T10:09:27.270Z,17.30
2018-06-12T10:11:55.486Z,17.10
2018-06-12T10:14:23.792Z,17.00
2018-06-12T10:16:51.970Z,17.10
2018-06-12T10:19:20.124Z,17.00
2018-06-12T10:21:48.347Z,17.30
2018-06-12T10:24:17.094Z,17.30
2018-06-12T10:26:45.260Z,17.50
2018-06-12T10:29:13.422Z,17.30
2018-06-12T10:31:42.142Z,17.30
2018-06-12T10:34:10.301Z,17.60
2018-06-12T10:36:38.462Z,17.90
2018-06-12T10:39:07.766Z,17.90
2018-06-12T10:41:35.945Z,17.90
2018-06-12T10:44:04.107Z,18.00
2018-06-12T10:46:32.343Z,18.00
2018-06-12T10:49:00.862Z,17.80
2018-06-12T10:51:29.042Z,17.80
2018-06-12T10:53:58.034Z,18.10
2018-06-12T10:56:26.237Z,18.30
2018-06-12T10:58:54.401Z,18.50
2018-06-12T11:01:22.582Z,18.60
2018-06-12T11:03:50.732Z,18.60
2018-06-12T11:06:18.909Z,18.30
2018-06-12T11:08:47.092Z,18.30
2018-06-12T11:11:15.254Z,18.30
2018-06-12T11:13:43.592Z,17.90
2018-06-12T11:16:11.810Z,18.10
2018-06-12T11:18:39.972Z,18.00
2018-06-12T11:21:08.146Z,18.10
2018-06-12T11:23:36.339Z,18.20
2018-06-12T11:26:15.044Z,18.40
2018-06-12T11:28:43.212Z,18.10
2018-06-12T11:31:11.371Z,18.50
2018-06-12T11:33:39.530Z,18.40
2018-06-12T11:36:07.786Z,18.20
2018-06-12T11:38:35.938Z,18.10
2018-06-12T11:41:04.095Z,18.20
2018-06-12T11:43:32.466Z,18.20
2018-06-12T11:46:00.653Z,18.00
2018-06-12T11:48:28.830Z,17.60
2018-06-12T11:50:58.978Z,17.80
2018-06-12T11:53:27.075Z,17.70
2018-06-12T11:55:55.248Z,18.10
2018-06-12T11:58:23.750Z,18.30
2018-06-12T12:00:51.903Z,18.20
2018-06-12T12:03:20.058Z,18.30
2018-06-12T12:05:48.239Z,18.40
2018-06-12T12:08:16.385Z,18.30
2018-06-12T12:10:44.554Z,18.30
2018-06-12T12:13:12.726Z,18.30
2018-06-12T12:15:40.890Z,18.30
2018-06-12T12:18:09.059Z,18.40
2018-06-12T12:20:37.317Z,18.60
2018-06-12T12:23:05.642Z,18.30
2018-06-12T12:25:33.850Z,18.30
2018-06-12T12:28:03.434Z,18.40
2018-06-12T12:30:31.587Z,18.60
2018-06-12T12:33:00.732Z,18.30
2018-06-12T12:35:29.027Z,18.30
2018-06-12T12:37:57.181Z,18.10
2018-06-12T12:40:25.399Z,18.40
2018-06-12T12:42:53.614Z,18.50
2018-06-12T12:45:21.778Z,18.70
2018-06-12T12:47:49.946Z,18.90
2018-06-12T12:50:18.115Z,18.90
2018-06-12T12:52:46.270Z,18.70
2018-06-12T12:55:14.458Z,18.40
2018-06-12T12:57:42.617Z,18.40
2018-06-12T13:00:10.810Z,18.90
2018-06-12T13:02:38.959Z,18.70
2018-06-12T13:07:41.614Z,18.50
2018-06-12T13:10:09.800Z,18.60
2018-06-12T13:12:37.958Z,18.60
2018-06-12T13:15:06.764Z,19.10
2018-06-12T13:17:34.926Z,19.10
2018-06-12T13:20:03.095Z,19.50
2018-06-12T13:22:31.304Z,19.00
2018-06-12T13:24:59.464Z,19.00
2018-06-12T13:27:27.638Z,18.50
2018-06-12T13:29:56.788Z,18.60
2018-06-12T13:32:24.988Z,18.80
2018-06-12T13:34:53.148Z,18.70
2018-06-12T13:37:21.335Z,18.70
2018-06-12T13:39:49.508Z,19.00
2018-06-12T13:42:17.692Z,19.10
2018-06-12T13:44:45.861Z,19.20
2018-06-12T13:47:14.012Z,19.00
2018-06-12T13:49:42.166Z,19.20
2018-06-12T13:52:10.663Z,19.20
2018-06-12T13:54:39.620Z,19.30
2018-06-12T13:57:07.807Z,19.80
2018-06-12T13:59:35.978Z,19.80
2018-06-12T14:02:04.129Z,19.90
2018-06-12T14:04:32.307Z,20.10
2018-06-12T14:07:00.499Z,19.70
2018-06-12T14:09:28.646Z,19.40
2018-06-12T14:11:57.195Z,19.20
2018-06-12T14:14:25.350Z,19.00
2018-06-12T14:16:53.504Z,19.50
2018-06-12T14:19:21.670Z,19.30
2018-06-12T14:21:49.973Z,19.30
2018-06-12T14:24:18.246Z,19.50
2018-06-12T14:26:46.425Z,19.00
2018-06-12T14:29:14.578Z,19.50
2018-06-12T14:31:43.974Z,19.50
2018-06-12T14:36:46.416Z,19.00
2018-06-12T14:39:14.576Z,18.70
2018-06-12T14:41:42.729Z,18.60
2018-06-12T14:44:10.892Z,18.50
2018-06-12T14:46:39.562Z,18.50
2018-06-12T14:49:07.721Z,18.40
2018-06-12T14:51:35.878Z,18.40
2018-06-12T14:54:04.031Z,18.70
2018-06-12T14:56:32.186Z,18.60
2018-06-12T14:59:00.650Z,18.60
2018-06-12T15:01:28.822Z,18.80
2018-06-12T15:03:57.040Z,18.70
2018-06-12T15:06:25.290Z,18.70
2018-06-12T15:08:53.554Z,18.80
2018-06-12T15:11:21.738Z,18.90
2018-06-12T15:13:49.921Z,18.60
2018-06-12T15:16:18.170Z,18.60
2018-06-12T15:18:46.336Z,18.40
2018-06-12T15:21:14.603Z,18.30
2018-06-12T15:23:42.775Z,18.20
2018-06-12T15:26:10.971Z,18.20
2018-06-12T15:28:39.139Z,18.40
2018-06-12T15:31:07.343Z,18.50
2018-06-12T15:33:37.070Z,18.60
2018-06-12T15:36:05.342Z,18.70
2018-06-12T15:38:33.498Z,18.80
2018-06-12T15:41:01.683Z,19.00
2018-06-12T15:43:29.842Z,19.00
2018-06-12T15:45:58.007Z,18.80
2018-06-12T15:48:26.186Z,19.00
2018-06-12T15:50:54.355Z,19.10
2018-06-12T15:53:23.116Z,19.20
2018-06-12T15:55:51.330Z,19.30
2018-06-12T15:58:19.493Z,19.20
2018-06-12T16:00:47.689Z,19.30
2018-06-12T16:03:16.174Z,19.30
2018-06-12T16:05:44.326Z,19.20
2018-06-12T16:08:12.596Z,19.10
2018-06-12T16:10:40.826Z,19.10
2018-06-12T16:13:09.038Z,19.00
2018-06-12T16:15:37.221Z,19.00
2018-06-12T16:18:05.410Z,18.80
2018-06-12T16:20:33.569Z,18.90
2018-06-12T16:23:01.714Z,18.80
2018-06-12T16:25:30.008Z,18.70
2018-06-12T16:27:58.167Z,18.70
2018-06-12T16:30:26.353Z,18.70
2018-06-12T16:32:54.527Z,18.50
2018-06-12T16:35:23.248Z,18.50
2018-06-12T16:37:51.546Z,18.60
2018-06-12T16:40:19.750Z,18.50
2018-06-12T16:42:47.902Z,18.70
2018-06-12T16:45:16.061Z,18.80
2018-06-12T16:47:44.270Z,18.60
2018-06-12T16:50:12.428Z,18.70
2018-06-12T16:52:41.126Z,18.70
2018-06-12T16:55:09.297Z,18.60
2018-06-12T16:57:37.458Z,18.40
2018-06-12T17:00:05.678Z,18.40
2018-06-12T17:02:33.850Z,18.30
2018-06-12T17:05:02.018Z,18.60
2018-06-12T17:07:30.198Z,18.40
2018-06-12T17:09:58.433Z,18.40
2018-06-12T17:12:26.599Z,18.60
2018-06-12T17:14:54.755Z,18.50
2018-06-12T17:17:22.930Z,18.60
2018-06-12T17:19:51.462Z,18.70
2018-06-12T17:22:19.626Z,18.50
2018-06-12T17:24:47.790Z,18.70
2018-06-12T17:27:15.964Z,18.50
2018-06-12T17:29:44.126Z,18.40
2018-06-12T17:32:13.083Z,18.50
2018-06-12T17:34:41.259Z,18.50
2018-06-12T17:37:10.412Z,18.50
2018-06-12T17:39:38.582Z,18.40
2018-06-12T17:42:06.786Z,18.30
2018-06-12T17:44:34.945Z,18.40
2018-06-12T17:47:03.177Z,18.50
2018-06-12T17:49:31.362Z,18.40
2018-06-12T17:51:59.510Z,18.30
2018-06-12T17:54:27.902Z,18.40
2018-06-12T17:56:56.060Z,18.40
2018-06-12T17:59:24.242Z,18.30
2018-06-12T18:01:52.398Z,18.40
2018-06-12T18:04:20.694Z,18.40
2018-06-12T18:06:48.873Z,18.50
2018-06-12T18:09:23.431Z,18.30
2018-06-12T18:11:51.593Z,18.10
2018-06-12T18:14:19.754Z,18.10
2018-06-12T18:16:48.010Z,18.00
2018-06-12T18:19:16.227Z,18.10
2018-06-12T18:21:44.373Z,18.20
2018-06-12T18:24:12.599Z,18.20
2018-06-12T18:26:40.893Z,18.30
2018-06-12T18:29:09.082Z,18.20
2018-06-12T18:31:37.314Z,18.30
2018-06-12T18:34:06.138Z,18.00
2018-06-12T18:36:34.329Z,18.10
2018-06-12T18:39:03.896Z,18.10
2018-06-12T18:41:32.118Z,18.10
2018-06-12T18:44:00.537Z,18.10
2018-06-12T18:46:29.268Z,18.20
2018-06-12T18:48:57.820Z,18.10
2018-06-12T18:51:26.783Z,18.00
2018-06-12T18:53:56.311Z,18.00
2018-06-12T18:56:26.027Z,18.10
2018-06-12T18:58:55.632Z,18.00
2018-06-12T19:01:25.639Z,18.00
2018-06-12T19:03:55.882Z,18.00
2018-06-12T19:06:26.382Z,18.00
2018-06-12T19:08:56.867Z,18.00
2018-06-12T19:11:27.341Z,18.00
2018-06-12T19:13:58.516Z,17.90
2018-06-12T19:16:28.899Z,17.90
2018-06-12T19:18:59.245Z,17.90
2018-06-12T19:21:29.939Z,17.80
2018-06-12T19:24:00.454Z,17.70
2018-06-12T19:26:30.924Z,17.40
2018-06-12T19:29:01.873Z,17.20
2018-06-12T19:31:32.435Z,17.20
2018-06-12T19:34:03.403Z,17.10
2018-06-12T19:36:33.812Z,17.10
2018-06-12T19:39:04.724Z,17.10
2018-06-12T19:41:34.794Z,17.00
2018-06-12T19:44:04.464Z,17.00
2018-06-12T19:46:34.595Z,17.10
2018-06-12T19:49:03.958Z,17.00
2018-06-12T19:51:33.137Z,17.10
2018-06-12T19:54:01.564Z,17.00
2018-06-12T19:56:30.548Z,17.00
2018-06-12T19:59:00.087Z,17.00
2018-06-12T20:01:29.332Z,17.10
2018-06-12T20:03:58.996Z,17.20
2018-06-12T20:06:28.789Z,17.20
2018-06-12T20:08:58.430Z,17.20
2018-06-12T20:11:28.574Z,17.30
2018-06-12T20:13:58.909Z,17.30
2018-06-12T20:16:28.776Z,17.20
2018-06-12T20:18:59.024Z,17.40
2018-06-12T20:21:29.268Z,17.30
2018-06-12T20:23:59.014Z,17.20
2018-06-12T20:26:28.122Z,17.20
2018-06-12T20:28:57.064Z,17.20
2018-06-12T20:31:26.110Z,17.10
2018-06-12T20:33:55.125Z,17.20
2018-06-12T20:36:23.568Z,17.20
2018-06-12T20:41:37.540Z,17.40
2018-06-12T20:44:05.841Z,17.30
2018-06-12T20:46:34.382Z,17.30
2018-06-12T20:49:02.651Z,17.30
2018-06-12T20:51:30.902Z,17.20
2018-06-12T20:53:59.063Z,17.20
2018-06-12T20:56:27.251Z,17.20
2018-06-12T20:58:55.422Z,17.20
2018-06-12T21:01:23.616Z,17.10
2018-06-12T21:03:51.818Z,17.20
2018-06-12T21:06:20.002Z,17.20
2018-06-12T21:08:48.243Z,17.20
2018-06-12T21:11:16.403Z,17.20
2018-06-12T21:13:44.574Z,17.10
2018-06-12T21:16:12.732Z,17.20
2018-06-12T21:18:40.912Z,17.20
2018-06-12T21:21:09.185Z,17.30
2018-06-12T21:23:37.353Z,17.20
2018-06-12T21:26:05.546Z,17.30
2018-06-12T21:28:33.746Z,17.40
2018-06-12T21:31:01.964Z,17.30
2018-06-12T21:33:30.199Z,17.20
2018-06-12T21:35:58.365Z,17.20
2018-06-12T21:38:26.518Z,17.20
2018-06-12T21:40:55.698Z,17.20
2018-06-12T21:43:24.377Z,17.20
2018-06-12T21:45:52.539Z,17.10
2018-06-12T21:48:21.098Z,17.10
2018-06-12T21:50:49.281Z,16.90
2018-06-12T21:53:17.438Z,17.00
2018-06-12T21:55:45.607Z,16.90
2018-06-12T21:58:13.786Z,17.00
2018-06-12T22:00:41.944Z,16.90
2018-06-12T22:03:10.122Z,16.90
2018-06-12T22:05:38.746Z,16.80
2018-06-12T22:08:06.912Z,16.80
2018-06-12T22:10:35.922Z,16.90
2018-06-12T22:13:04.088Z,16.80
2018-06-12T22:15:32.242Z,16.70
2018-06-12T22:18:00.437Z,16.80
2018-06-12T22:20:28.590Z,16.70
2018-06-12T22:22:57.018Z,16.70
2018-06-12T22:25:25.153Z,16.70
2018-06-12T22:27:53.297Z,16.50
2018-06-12T22:30:21.500Z,16.50
2018-06-12T22:32:49.731Z,16.60
2018-06-12T22:35:17.918Z,16.70
2018-06-12T22:37:46.120Z,16.60
2018-06-12T22:40:14.251Z,16.60
2018-06-12T22:42:42.418Z,16.60
2018-06-12T22:45:11.119Z,16.60
2018-06-12T22:47:39.334Z,16.60
2018-06-12T22:50:07.791Z,16.40
2018-06-12T22:52:36.701Z,16.50
2018-06-12T22:55:05.078Z,16.50
2018-06-12T22:57:33.226Z,16.60
2018-06-12T23:00:01.392Z,16.60
2018-06-12T23:02:29.572Z,16.60
2018-06-12T23:04:57.750Z,16.50
2018-06-12T23:07:25.906Z,16.50
2018-06-12T23:09:54.071Z,16.40
2018-06-12T23:12:22.271Z,16.50
2018-06-12T23:14:50.414Z,16.40
2018-06-12T23:17:19.131Z,16.40
2018-06-12T23:19:58.674Z,16.40
2018-06-12T23:22:26.869Z,16.40
2018-06-12T23:24:55.030Z,16.50
2018-06-12T23:27:23.225Z,16.50
2018-06-12T23:29:51.390Z,16.40
2018-06-12T23:32:19.554Z,16.40
2018-06-12T23:34:47.728Z,16.40
2018-06-12T23:37:15.979Z,16.40
2018-06-12T23:39:44.186Z,16.30
2018-06-12T23:42:12.331Z,16.30
2018-06-12T23:44:40.526Z,16.20
2018-06-12T23:47:08.799Z,16.30
2018-06-12T23:49:36.990Z,16.30
2018-06-12T23:52:05.557Z,16.40
2018-06-12T23:54:33.718Z,16.30
2018-06-12T23:57:01.908Z,16.20
2018-06-12T23:59:30.114Z,16.20
